createdAt,value
2019-05-17T00:00:37.758Z,99.9
2019-05-17T00:01:47.119Z,99.9
2019-05-17T00:02:57.288Z,99.9
2019-05-17T00:04:07.415Z,99.9
2019-05-17T00:05:17.922Z,99.9
2019-05-17T00:06:24.528Z,99.9
2019-05-17T00:07:33.692Z,99.9
2019-05-17T00:08:43.078Z,99.9
2019-05-17T00:09:52.458Z,99.9
2019-05-17T00:11:01.831Z,99.9
2019-05-17T00:12:11.196Z,99.9
2019-05-17T00:13:20.591Z,99.9
2019-05-17T00:14:29.993Z,99.9
2019-05-17T00:15:39.367Z,99.9
2019-05-17T00:16:48.862Z,99.9
2019-05-17T00:17:58.146Z,99.9
2019-05-17T00:19:07.712Z,99.9
2019-05-17T00:20:17.734Z,99.9
2019-05-17T00:21:27.633Z,99.9
2019-05-17T00:22:36.841Z,99.9
2019-05-17T00:23:47.113Z,99.9
2019-05-17T00:24:56.949Z,99.9
2019-05-17T00:26:03.752Z,99.9
2019-05-17T00:27:13.182Z,99.9
2019-05-17T00:28:22.565Z,99.9
2019-05-17T00:29:31.962Z,99.9
2019-05-17T00:30:41.265Z,99.9
2019-05-17T00:31:50.663Z,99.9
2019-05-17T00:33:00.010Z,99.9
2019-05-17T00:34:09.383Z,99.9
2019-05-17T00:35:19.041Z,99.9
2019-05-17T00:36:28.146Z,99.9
2019-05-17T00:37:37.594Z,99.9
2019-05-17T00:38:51.650Z,99.9
2019-05-17T00:39:56.853Z,99.9
2019-05-17T00:41:07.251Z,99.9
2019-05-17T00:42:17.270Z,99.9
2019-05-17T00:43:26.395Z,99.9
2019-05-17T00:44:33.747Z,99.9
2019-05-17T00:45:43.136Z,99.9
2019-05-17T00:46:52.635Z,99.9
2019-05-17T00:48:01.868Z,99.9
2019-05-17T00:49:11.285Z,99.9
2019-05-17T00:50:20.622Z,99.9
2019-05-17T00:51:30.027Z,99.9
2019-05-17T00:52:39.365Z,99.9
2019-05-17T00:53:48.717Z,99.9
2019-05-17T00:54:58.123Z,99.9
2019-05-17T00:56:07.670Z,99.9
2019-05-17T00:57:16.885Z,99.9
2019-05-17T00:58:26.426Z,99.9
2019-05-17T00:59:37.069Z,99.9
2019-05-17T01:00:48.040Z,99.9
2019-05-17T01:01:56.318Z,99.9
2019-05-17T01:03:03.709Z,99.9
2019-05-17T01:04:13.075Z,99.9
2019-05-17T01:05:22.490Z,99.9
2019-05-17T01:06:31.841Z,99.9
2019-05-17T01:07:41.256Z,99.9
2019-05-17T01:09:04.078Z,99.9
2019-05-17T01:09:59.929Z,99.9
2019-05-17T01:11:09.285Z,99.9
2019-05-17T01:12:18.661Z,99.9
2019-05-17T01:13:28.074Z,99.9
2019-05-17T01:14:37.490Z,99.9
2019-05-17T01:15:47.594Z,99.9
2019-05-17T01:16:56.642Z,99.9
2019-05-17T01:18:07.558Z,99.9
2019-05-17T01:19:16.603Z,99.9
2019-05-17T01:20:24.271Z,99.9
2019-05-17T01:21:33.603Z,99.9
2019-05-17T01:22:43.691Z,99.9
2019-05-17T01:23:52.363Z,99.9
2019-05-17T01:25:01.708Z,99.9
2019-05-17T01:26:11.077Z,99.9
2019-05-17T01:27:20.444Z,99.9
2019-05-17T01:28:29.897Z,99.9
2019-05-17T01:29:39.189Z,99.9
2019-05-17T01:30:48.548Z,99.9
2019-05-17T01:31:57.926Z,99.9
2019-05-17T01:33:07.358Z,99.9
2019-05-17T01:34:16.907Z,99.9
2019-05-17T01:35:26.848Z,99.9
2019-05-17T01:36:37.261Z,99.9
2019-05-17T01:37:47.656Z,99.9
2019-05-17T01:40:03.515Z,99.9
2019-05-17T01:41:12.833Z,99.9
2019-05-17T01:42:22.189Z,99.9
2019-05-17T01:43:31.569Z,99.9
2019-05-17T01:44:41.057Z,99.9
2019-05-17T01:45:50.306Z,99.9
2019-05-17T01:46:59.657Z,99.9
2019-05-17T01:48:09.028Z,99.9
2019-05-17T01:49:18.470Z,99.9
2019-05-17T01:50:27.890Z,99.9
2019-05-17T01:51:37.244Z,99.9
2019-05-17T01:52:46.535Z,99.9
2019-05-17T01:53:57.508Z,99.9
2019-05-17T01:55:06.771Z,99.9
2019-05-17T01:56:17.081Z,99.9
2019-05-17T01:57:23.949Z,99.9
2019-05-17T01:58:33.299Z,99.9
2019-05-17T01:59:43.919Z,99.9
2019-05-17T02:00:53.198Z,99.9
2019-05-17T02:02:02.576Z,99.9
2019-05-17T02:03:11.916Z,99.9
2019-05-17T02:04:21.262Z,99.9
2019-05-17T02:05:30.686Z,99.9
2019-05-17T02:06:40.086Z,99.9
2019-05-17T02:07:49.339Z,99.9
2019-05-17T02:08:58.749Z,99.9
2019-05-17T02:10:08.171Z,99.9
2019-05-17T02:11:18.649Z,99.9
2019-05-17T02:12:26.911Z,99.9
2019-05-17T02:13:37.827Z,99.9
2019-05-17T02:14:46.869Z,99.9
2019-05-17T02:15:56.604Z,99.9
2019-05-17T02:17:06.992Z,99.9
2019-05-17T02:18:13.554Z,99.9
2019-05-17T02:19:22.959Z,99.9
2019-05-17T02:20:32.275Z,99.9
2019-05-17T02:22:51.009Z,99.9
2019-05-17T02:24:00.339Z,99.9
2019-05-17T02:25:09.702Z,99.9
2019-05-17T02:26:19.085Z,99.9
2019-05-17T02:27:38.153Z,99.9
2019-05-17T02:28:37.767Z,99.9
2019-05-17T02:29:47.072Z,99.9
2019-05-17T02:30:56.590Z,99.9
2019-05-17T02:32:05.800Z,99.9
2019-05-17T02:33:15.141Z,99.9
2019-05-17T02:34:24.600Z,99.9
2019-05-17T02:35:34.173Z,99.9
2019-05-17T02:36:43.339Z,99.9
2019-05-17T02:37:53.683Z,99.9
2019-05-17T02:39:03.819Z,99.9
2019-05-17T02:40:15.155Z,99.9
2019-05-17T02:41:22.857Z,99.9
2019-05-17T02:42:33.540Z,99.9
2019-05-17T02:43:39.298Z,99.9
2019-05-17T02:44:48.622Z,99.9
2019-05-17T02:45:57.979Z,99.9
2019-05-17T02:47:07.335Z,99.9
2019-05-17T02:48:16.691Z,99.9
2019-05-17T02:49:26.045Z,99.9
2019-05-17T02:50:35.382Z,99.9
2019-05-17T02:51:44.742Z,99.9
2019-05-17T02:52:54.074Z,99.9
2019-05-17T02:54:04.455Z,99.9
2019-05-17T02:55:13.532Z,99.9
2019-05-17T02:56:23.330Z,99.9
2019-05-17T02:57:34.891Z,99.9
2019-05-17T02:58:44.051Z,99.9
2019-05-17T02:59:52.722Z,99.9
2019-05-17T03:00:59.558Z,99.9
2019-05-17T03:02:08.865Z,99.9
2019-05-17T03:03:18.202Z,99.9
2019-05-17T03:04:27.647Z,99.9
2019-05-17T03:05:36.904Z,99.9
2019-05-17T03:07:55.592Z,99.9
2019-05-17T03:09:04.942Z,99.9
2019-05-17T03:10:28.730Z,99.9
2019-05-17T03:11:23.626Z,99.9
2019-05-17T03:12:33.218Z,99.9
2019-05-17T03:13:43.643Z,99.9
2019-05-17T03:14:53.067Z,99.9
2019-05-17T03:16:03.957Z,99.9
2019-05-17T03:17:14.260Z,99.9
2019-05-17T03:18:23.170Z,99.9
2019-05-17T03:19:29.059Z,99.9
2019-05-17T03:20:38.417Z,99.9
2019-05-17T03:21:47.756Z,99.9
2019-05-17T03:22:57.127Z,99.9
2019-05-17T03:24:06.485Z,99.9
2019-05-17T03:25:15.806Z,99.9
2019-05-17T03:26:25.134Z,99.9
2019-05-17T03:27:34.479Z,99.9
2019-05-17T03:28:43.822Z,99.9
2019-05-17T03:29:54.020Z,99.9
2019-05-17T03:31:09.332Z,99.9
2019-05-17T03:32:17.855Z,99.9
2019-05-17T03:33:27.237Z,99.9
2019-05-17T03:34:37.605Z,99.9
2019-05-17T03:35:46.292Z,99.9
2019-05-17T03:36:49.294Z,99.9
2019-05-17T03:37:58.581Z,99.9
2019-05-17T03:39:07.947Z,99.9
2019-05-17T03:41:03.128Z,99.9
2019-05-17T03:41:29.680Z,99.9
2019-05-17T03:42:35.997Z,99.9
2019-05-17T03:43:45.358Z,99.9
2019-05-17T03:44:54.795Z,99.9
2019-05-17T03:46:04.056Z,99.9
2019-05-17T03:47:13.393Z,99.9
2019-05-17T03:48:22.786Z,99.9
2019-05-17T03:49:33.351Z,99.9
2019-05-17T03:50:43.801Z,99.9
2019-05-17T03:51:53.448Z,99.9
2019-05-17T03:53:02.644Z,99.9
2019-05-17T03:54:12.901Z,99.9
2019-05-17T03:55:18.852Z,99.9
2019-05-17T03:56:28.214Z,99.9
2019-05-17T03:57:37.649Z,99.9
2019-05-17T03:58:47.031Z,99.9
2019-05-17T03:59:56.269Z,99.9
2019-05-17T04:01:05.634Z,99.9
2019-05-17T04:02:14.990Z,99.9
2019-05-17T04:03:24.314Z,99.9
2019-05-17T04:04:33.675Z,99.9
2019-05-17T04:05:43.336Z,99.9
2019-05-17T04:06:52.853Z,99.9
2019-05-17T04:08:03.938Z,99.9
2019-05-17T04:09:14.276Z,99.9
2019-05-17T04:10:23.019Z,99.9
2019-05-17T04:11:36.327Z,99.9
2019-05-17T04:12:39.204Z,99.9
2019-05-17T04:13:49.618Z,99.9
2019-05-17T04:15:02.411Z,99.9
2019-05-17T04:16:10.424Z,99.9
2019-05-17T04:17:17.651Z,99.9
2019-05-17T04:18:27.038Z,99.9
2019-05-17T04:19:36.480Z,99.9
2019-05-17T04:20:45.792Z,99.9
2019-05-17T04:21:55.088Z,99.9
2019-05-17T04:23:04.595Z,99.9
2019-05-17T04:24:13.975Z,99.9
2019-05-17T04:25:23.614Z,99.9
2019-05-17T04:27:44.210Z,99.9
2019-05-17T04:28:53.575Z,99.9
2019-05-17T04:30:03.885Z,99.9
2019-05-17T04:31:13.589Z,99.9
2019-05-17T04:32:19.364Z,99.9
2019-05-17T04:33:28.743Z,99.9
2019-05-17T04:34:38.191Z,99.9
2019-05-17T04:35:47.595Z,99.9
2019-05-17T04:36:56.872Z,99.9
2019-05-17T04:38:06.242Z,99.9
2019-05-17T04:39:15.597Z,99.9
2019-05-17T04:40:24.960Z,99.9
2019-05-17T04:41:49.886Z,99.9
2019-05-17T04:42:44.771Z,99.9
2019-05-17T04:43:53.465Z,99.9
2019-05-17T04:45:04.084Z,99.9
2019-05-17T04:46:13.281Z,99.9
2019-05-17T04:47:23.249Z,99.9
2019-05-17T04:48:33.089Z,99.9
2019-05-17T04:49:44.265Z,99.9
2019-05-17T04:50:53.873Z,99.9
2019-05-17T04:52:03.867Z,99.9
2019-05-17T04:53:09.248Z,99.9
2019-05-17T04:54:18.736Z,99.9
2019-05-17T04:55:28.103Z,99.9
2019-05-17T04:56:37.396Z,99.9
2019-05-17T04:57:46.848Z,99.9
2019-05-17T04:58:56.180Z,99.9
2019-05-17T05:00:05.552Z,99.9
2019-05-17T05:01:15.025Z,99.9
2019-05-17T05:02:24.332Z,99.9
2019-05-17T05:03:33.700Z,99.9
2019-05-17T05:04:43.931Z,99.9
2019-05-17T05:05:53.825Z,99.9
2019-05-17T05:07:03.341Z,99.9
2019-05-17T05:08:13.289Z,99.9
2019-05-17T05:09:23.318Z,99.9
2019-05-17T05:10:36.145Z,99.9
2019-05-17T05:12:02.327Z,99.9
2019-05-17T05:12:48.824Z,99.9
2019-05-17T05:13:58.176Z,99.9
2019-05-17T05:15:07.613Z,99.9
2019-05-17T05:16:16.989Z,99.9
2019-05-17T05:17:26.397Z,99.9
2019-05-17T05:18:35.764Z,99.9
2019-05-17T05:19:45.162Z,99.9
2019-05-17T05:20:54.570Z,99.9
2019-05-17T05:22:04.973Z,99.9
2019-05-17T05:23:13.780Z,99.9
2019-05-17T05:24:22.894Z,99.9
2019-05-17T05:27:51.739Z,99.9
2019-05-17T05:29:02.422Z,99.9
2019-05-17T05:31:19.386Z,99.9
2019-05-17T05:32:28.904Z,99.9
2019-05-17T05:33:38.273Z,99.9
2019-05-17T05:34:47.775Z,99.9
2019-05-17T05:35:57.167Z,99.9
2019-05-17T05:37:06.768Z,99.9
2019-05-17T05:38:16.064Z,99.9
2019-05-17T05:39:25.523Z,99.9
2019-05-17T05:40:35.010Z,99.9
2019-05-17T05:41:44.478Z,99.9
2019-05-17T05:42:53.917Z,99.9
2019-05-17T05:44:03.522Z,99.9
2019-05-17T05:45:12.904Z,99.9
2019-05-17T05:46:22.634Z,99.9
2019-05-17T05:47:32.519Z,99.9
2019-05-17T05:48:41.803Z,99.9
2019-05-17T05:49:52.140Z,99.9
2019-05-17T05:51:05.041Z,99.9
2019-05-17T05:52:09.957Z,99.9
2019-05-17T07:29:45.996Z,82.6
2019-05-17T08:02:25.277Z,78.4
2019-05-17T08:18:23.917Z,70.3
2019-05-17T08:23:30.639Z,73.1
2019-05-17T08:28:14.353Z,73.8
2019-05-17T09:18:06.466Z,69
2019-05-17T09:31:51.113Z,65.9
2019-05-17T09:37:05.322Z,66.2
2019-05-17T09:38:49.575Z,65.9
2019-05-17T09:40:17.335Z,71.3
2019-05-17T09:51:35.720Z,61
2019-05-17T09:55:30.182Z,65.5
2019-05-17T09:57:01.727Z,69.5
2019-05-17T09:58:31.703Z,74.9
2019-05-17T10:00:13.695Z,75.1
2019-05-17T10:02:31.689Z,69.7
2019-05-17T10:04:07.685Z,71
2019-05-17T10:06:23.591Z,68.3
2019-05-17T10:12:26.001Z,61.6
2019-05-17T10:14:23.591Z,63.2
2019-05-17T10:19:23.834Z,61.6
2019-05-17T10:20:50.799Z,65.9
2019-05-17T10:22:15.844Z,69
2019-05-17T10:24:05.813Z,67.7
2019-05-17T10:25:40.314Z,68.2
2019-05-17T10:27:03.762Z,69.7
2019-05-17T10:28:29.860Z,72
2019-05-17T10:29:59.592Z,72.7
2019-05-17T10:31:23.507Z,74.1
2019-05-17T10:32:53.403Z,73.1
2019-05-17T10:34:25.314Z,70.6
2019-05-17T10:36:21.243Z,67.9
2019-05-17T10:38:01.283Z,66.8
2019-05-17T10:40:27.169Z,63.8
2019-05-17T10:42:10.171Z,66.4
2019-05-17T10:46:23.177Z,62.2
2019-05-17T10:48:43.180Z,62.7
2019-05-17T10:50:31.192Z,65.6
2019-05-17T10:54:33.319Z,59.9
2019-05-17T10:56:11.350Z,65.1
2019-05-17T10:57:45.418Z,67.9
2019-05-17T10:59:20.409Z,70.5
2019-05-17T11:01:15.397Z,72.5
2019-05-17T11:02:43.351Z,70.6
2019-05-17T11:04:55.319Z,67.7
2019-05-17T11:06:23.331Z,71.2
2019-05-17T11:07:51.140Z,70.4
2019-05-17T11:09:20.712Z,71.1
2019-05-17T11:12:22.761Z,70.7
2019-05-17T11:13:46.596Z,71.8
2019-05-17T11:15:16.654Z,72.8
2019-05-17T11:16:44.281Z,71
2019-05-17T11:18:14.103Z,70.1
2019-05-17T11:19:47.909Z,70.8
2019-05-17T11:21:25.733Z,70.5
2019-05-17T11:22:57.590Z,69.8
2019-05-17T11:24:29.414Z,71.7
2019-05-17T11:26:01.238Z,70.4
2019-05-17T11:27:28.990Z,69.5
2019-05-17T11:28:56.925Z,71.5
2019-05-17T11:30:24.594Z,71
2019-05-17T11:31:52.358Z,71.3
2019-05-17T11:33:18.261Z,72.2
2019-05-17T11:34:47.006Z,72.3
2019-05-17T11:36:14.787Z,71.5
2019-05-17T11:37:44.582Z,70.4
2019-05-17T11:39:12.389Z,72.2
2019-05-17T11:40:38.099Z,73.6
2019-05-17T11:42:03.879Z,73.6
2019-05-17T11:44:59.471Z,73.5
2019-05-17T11:46:36.689Z,72.4
2019-05-17T11:48:03.021Z,71.9
2019-05-17T11:49:40.740Z,70.2
2019-05-17T11:51:14.532Z,68.8
2019-05-17T11:52:42.294Z,70.2
2019-05-17T11:54:06.090Z,71.8
2019-05-17T11:55:27.836Z,73
2019-05-17T11:56:49.655Z,73.3
2019-05-17T11:58:11.393Z,73.9
2019-05-17T11:59:37.144Z,72.1
2019-05-17T12:01:02.971Z,74.7
2019-05-17T12:02:26.691Z,74.8
2019-05-17T12:04:00.519Z,74.9
2019-05-17T12:05:28.212Z,75
2019-05-17T12:06:55.949Z,74.9
2019-05-17T12:08:29.702Z,75
2019-05-17T12:10:07.493Z,75.1
2019-05-17T12:11:35.267Z,73.4
2019-05-17T12:13:04.981Z,72.9
2019-05-17T12:14:32.707Z,73.1
2019-05-17T12:16:04.667Z,74
2019-05-17T12:35:53.169Z,70
2019-05-17T12:37:10.883Z,69.3
2019-05-17T12:38:32.734Z,68.9
2019-05-17T12:40:04.520Z,68.5
2019-05-17T12:41:34.288Z,66.8
2019-05-17T12:43:02.105Z,69
2019-05-17T12:44:23.952Z,68.6
2019-05-17T12:46:01.354Z,68.8
2019-05-17T12:47:05.535Z,70.8
2019-05-17T12:48:29.351Z,69.5
2019-05-17T12:49:59.174Z,68.3
2019-05-17T12:51:23.051Z,65.7
2019-05-17T12:52:45.861Z,67.8
2019-05-17T12:54:08.079Z,68.7
2019-05-17T12:55:35.506Z,69.1
2019-05-17T12:56:59.315Z,69.6
2019-05-17T12:58:25.133Z,68.5
2019-05-17T12:59:44.942Z,69.5
2019-05-17T13:01:02.727Z,70.9
2019-05-17T13:02:22.562Z,72.3
2019-05-17T13:03:42.411Z,73.1
2019-05-17T13:06:19.875Z,73.6
2019-05-17T13:07:40.769Z,72.5
2019-05-17T13:09:01.658Z,72.5
2019-05-17T13:10:23.104Z,72.8
2019-05-17T13:11:44.863Z,71.7
2019-05-17T13:13:02.638Z,71.9
2019-05-17T13:14:20.358Z,73.1
2019-05-17T13:15:40.080Z,73.4
2019-05-17T13:16:59.853Z,73.8
2019-05-17T13:18:15.567Z,72.3
2019-05-17T13:19:33.335Z,74.2
2019-05-17T13:20:51.030Z,73.5
2019-05-17T13:22:07.040Z,73.7
2019-05-17T13:23:24.553Z,74.1
2019-05-17T13:24:34.329Z,74.7
2019-05-17T13:25:54.018Z,74.7
2019-05-17T13:27:11.750Z,75
2019-05-17T13:28:33.497Z,73.8
2019-05-17T13:29:55.335Z,74
2019-05-17T13:31:14.975Z,73
2019-05-17T13:32:36.723Z,72.7
2019-05-17T13:33:58.439Z,72.7
2019-05-17T13:35:18.206Z,73.5
2019-05-17T13:36:41.917Z,72.7
2019-05-17T13:38:01.652Z,73.3
2019-05-17T13:39:23.489Z,73.7
2019-05-17T13:40:47.154Z,72.3
2019-05-17T13:42:06.871Z,72.3
2019-05-17T13:43:24.639Z,73.2
2019-05-17T13:44:44.360Z,74
2019-05-17T13:46:06.146Z,73.3
2019-05-17T13:47:27.836Z,72.4
2019-05-17T13:48:49.596Z,71.7
2019-05-17T13:50:11.336Z,71.9
2019-05-17T13:51:31.215Z,72
2019-05-17T13:52:54.899Z,73.2
2019-05-17T13:54:16.640Z,72.3
2019-05-17T13:55:44.358Z,72
2019-05-17T13:57:11.565Z,71.1
2019-05-17T13:58:38.064Z,69.9
2019-05-17T14:00:05.682Z,69.9
2019-05-17T14:01:31.603Z,70.9
2019-05-17T14:02:51.525Z,71.6
2019-05-17T14:04:11.062Z,71.3
2019-05-17T14:05:28.839Z,72.9
2019-05-17T14:06:46.642Z,73.7
2019-05-17T14:08:06.491Z,73.7
2019-05-17T14:09:29.283Z,73.8
2019-05-17T14:10:51.046Z,72.1
2019-05-17T14:13:32.693Z,72.7
2019-05-17T14:14:52.488Z,72.8
2019-05-17T14:16:12.346Z,73
2019-05-17T14:17:34.159Z,71
2019-05-17T14:18:56.015Z,72.1
2019-05-17T14:20:17.884Z,72
2019-05-17T14:21:39.745Z,72.4
2019-05-17T14:23:01.702Z,72.3
2019-05-17T14:24:21.667Z,73.2
2019-05-17T14:25:43.597Z,74.2
2019-05-17T14:27:05.358Z,74.2
2019-05-17T14:28:29.279Z,73.2
2019-05-17T14:29:55.348Z,72.8
2019-05-17T14:31:23.189Z,71.5
2019-05-17T14:32:49.086Z,71.1
2019-05-17T14:34:15.174Z,71.1
2019-05-17T14:35:47.094Z,71.2
2019-05-17T14:37:13.059Z,69.9
2019-05-17T14:38:43.054Z,70.1
2019-05-17T14:40:11.056Z,70.1
2019-05-17T14:41:37.181Z,70.1
2019-05-17T14:43:09.110Z,69.8
2019-05-17T14:44:43.179Z,68.3
2019-05-17T14:46:13.265Z,69.2
2019-05-17T14:47:45.329Z,71
2019-05-17T14:49:15.423Z,69.8
2019-05-17T14:50:41.551Z,69.6
2019-05-17T14:52:08.077Z,68.9
2019-05-17T14:53:29.715Z,70
2019-05-17T14:54:51.784Z,70.3
2019-05-17T14:56:13.680Z,71.6
2019-05-17T14:57:37.689Z,71.8
2019-05-17T14:59:03.813Z,69
2019-05-17T15:00:29.813Z,70
2019-05-17T15:01:53.857Z,70.4
2019-05-17T15:03:11.867Z,71.7
2019-05-17T15:04:33.753Z,72.8
2019-05-17T15:06:07.838Z,69.7
2019-05-17T15:07:37.904Z,69.3
2019-05-17T15:08:57.739Z,69.8
2019-05-17T15:10:23.661Z,70.2
2019-05-17T15:11:49.646Z,69.2
2019-05-17T15:13:17.693Z,69.7
2019-05-17T15:15:07.759Z,68
2019-05-17T15:16:31.798Z,68.4
2019-05-17T15:17:55.883Z,70.2
2019-05-17T15:19:17.955Z,72.3
2019-05-17T15:20:37.992Z,72.2
2019-05-17T15:22:00.007Z,72.2
2019-05-17T15:23:17.941Z,72.3
2019-05-17T15:24:37.847Z,72.5
2019-05-17T15:25:59.763Z,73.6
2019-05-17T15:27:17.640Z,73.8
2019-05-17T15:28:33.552Z,73.8
2019-05-17T15:29:43.383Z,75
2019-05-17T15:30:53.179Z,73.8
2019-05-17T15:32:02.996Z,72.6
2019-05-17T15:33:12.777Z,72.8
2019-05-17T15:34:22.643Z,72.3
2019-05-17T15:35:32.487Z,72.3
2019-05-17T15:36:42.163Z,73.1
2019-05-17T15:37:52.079Z,71.7
2019-05-17T15:39:01.598Z,71.8
2019-05-17T15:40:11.309Z,71.3
2019-05-17T15:41:21.035Z,71.6
2019-05-17T15:42:44.681Z,73.3
2019-05-17T15:43:40.485Z,75.5
2019-05-17T15:44:50.200Z,75.6
2019-05-17T15:46:33.942Z,75.9
2019-05-17T15:48:09.797Z,75.3
2019-05-17T15:49:41.434Z,75.6
2019-05-17T15:51:07.171Z,75.8
2019-05-17T15:52:32.929Z,76.5
2019-05-17T15:53:58.626Z,76.7
2019-05-17T15:55:26.380Z,76.8
2019-05-17T15:56:48.099Z,76.4
2019-05-17T15:58:09.853Z,75.7
2019-05-17T15:59:29.605Z,75.7
2019-05-17T16:00:51.377Z,76.3
2019-05-17T16:02:14.981Z,76.1
2019-05-17T16:03:36.749Z,76.1
2019-05-17T16:04:58.449Z,75.1
2019-05-17T16:06:24.172Z,75.2
2019-05-17T16:07:43.889Z,73.6
2019-05-17T16:09:05.642Z,73.3
2019-05-17T16:10:27.361Z,73.7
2019-05-17T16:11:49.097Z,73.3
2019-05-17T16:13:12.820Z,72.8
2019-05-17T16:14:38.575Z,73.6
2019-05-17T16:16:00.426Z,74.3
2019-05-17T16:17:22.039Z,74.3
2019-05-17T16:18:45.832Z,74.6
2019-05-17T16:21:33.275Z,74
2019-05-17T16:22:57.042Z,74.1
2019-05-17T16:24:19.135Z,74.3
2019-05-17T16:25:40.711Z,74.3
2019-05-17T16:27:00.280Z,74.2
2019-05-17T16:28:19.887Z,74.3
2019-05-17T16:29:39.694Z,75.4
2019-05-17T16:30:59.409Z,76
2019-05-17T16:32:21.062Z,74.5
2019-05-17T16:33:40.806Z,75.5
2019-05-17T16:35:00.516Z,75.6
2019-05-17T16:36:18.277Z,74.9
2019-05-17T16:37:37.999Z,76.2
2019-05-17T16:38:53.669Z,75.8
2019-05-17T16:40:11.419Z,76.8
2019-05-17T16:41:29.174Z,76.7
2019-05-17T16:42:46.857Z,76.9
2019-05-17T16:44:04.602Z,77.6
2019-05-17T16:45:22.381Z,75.8
2019-05-17T16:46:38.051Z,77.5
2019-05-17T16:47:47.733Z,77
2019-05-17T16:48:57.489Z,75.9
2019-05-17T16:50:07.158Z,76.5
2019-05-17T16:51:16.799Z,76.9
2019-05-17T16:52:26.471Z,75.4
2019-05-17T16:53:36.129Z,75.7
2019-05-17T16:54:45.882Z,75.3
2019-05-17T16:55:55.496Z,75.4
2019-05-17T16:57:05.161Z,75.7
2019-05-17T16:58:14.813Z,77.2
2019-05-17T16:59:24.522Z,76.9
2019-05-17T17:02:40.314Z,78.1
2019-05-17T17:03:54.031Z,78.4
2019-05-17T17:05:11.688Z,79.3
2019-05-17T17:06:21.347Z,79.2
2019-05-17T17:07:31.082Z,79.6
2019-05-17T17:08:40.674Z,78.2
2019-05-17T17:09:50.367Z,78.6
2019-05-17T17:11:00.020Z,79.5
2019-05-17T17:12:09.683Z,79.3
2019-05-17T17:13:33.484Z,78.7
2019-05-17T17:14:29.004Z,78.5
2019-05-17T17:15:39.672Z,78.8
2019-05-17T17:16:49.475Z,78.7
2019-05-17T17:17:58.961Z,79.2
2019-05-17T17:19:08.645Z,77.4
2019-05-17T17:20:18.373Z,78.6
2019-05-17T17:21:27.968Z,78.5
2019-05-17T17:22:37.617Z,74.8
2019-05-17T17:23:47.280Z,74.8
2019-05-17T17:24:57.129Z,74.3
2019-05-17T17:26:06.612Z,73.5
2019-05-17T17:27:16.179Z,73.8
2019-05-17T17:28:25.829Z,73
2019-05-17T17:29:35.463Z,72.6
2019-05-17T17:30:45.165Z,72.9
2019-05-17T17:31:54.757Z,72.6
2019-05-17T17:33:04.398Z,72.1
2019-05-17T17:34:14.027Z,72.9
2019-05-17T17:35:23.669Z,72.4
2019-05-17T17:36:33.297Z,72.5
2019-05-17T17:37:42.927Z,72.5
2019-05-17T17:38:52.599Z,72.4
2019-05-17T17:40:02.281Z,72.7
2019-05-17T17:41:11.858Z,72.9
2019-05-17T17:42:21.671Z,72.9
2019-05-17T17:43:31.086Z,72.1
2019-05-17T17:44:40.719Z,72.9
2019-05-17T17:45:50.351Z,72.9
2019-05-17T17:46:59.986Z,73.3
2019-05-17T17:48:09.669Z,73.4
2019-05-17T17:49:19.272Z,73.7
2019-05-17T17:50:28.890Z,73.9
2019-05-17T17:51:38.505Z,74.2
2019-05-17T17:52:48.174Z,74.5
2019-05-17T17:53:57.842Z,74.4
2019-05-17T17:55:07.469Z,74.6
2019-05-17T17:57:26.628Z,74.6
2019-05-17T17:58:36.261Z,74.6
2019-05-17T17:59:45.877Z,74.8
2019-05-17T18:00:55.517Z,74.6
2019-05-17T18:02:05.135Z,75.7
2019-05-17T18:03:14.753Z,76
2019-05-17T18:04:24.343Z,75.8
2019-05-17T18:05:33.967Z,76.2
2019-05-17T18:06:43.635Z,77
2019-05-17T18:07:53.204Z,76.7
2019-05-17T18:09:02.870Z,76.6
2019-05-17T18:10:12.459Z,77.3
2019-05-17T18:11:22.052Z,76.5
2019-05-17T18:12:31.715Z,76.5
2019-05-17T18:13:41.296Z,77.2
2019-05-17T18:14:50.947Z,76.9
2019-05-17T18:16:00.578Z,76.9
2019-05-17T18:17:10.271Z,77.2
2019-05-17T18:18:19.783Z,76.5
2019-05-17T18:19:29.419Z,77.3
2019-05-17T18:20:39.032Z,77.5
2019-05-17T18:21:48.618Z,77.5
2019-05-17T18:22:58.243Z,77.6
2019-05-17T18:24:07.911Z,77.7
2019-05-17T18:25:17.463Z,78.1
2019-05-17T18:26:27.057Z,78.2
2019-05-17T18:27:36.761Z,78.7
2019-05-17T18:28:46.321Z,79.8
2019-05-17T18:29:55.894Z,79.5
2019-05-17T18:31:05.674Z,80.4
2019-05-17T18:32:15.110Z,80.9
2019-05-17T18:33:24.760Z,81.2
2019-05-17T18:34:34.318Z,82
2019-05-17T18:35:43.965Z,83
2019-05-17T18:36:53.537Z,85.1
2019-05-17T18:38:03.150Z,86.4
2019-05-17T18:39:12.751Z,87.1
2019-05-17T18:40:22.364Z,88.1
2019-05-17T18:41:33.047Z,89.8
2019-05-17T18:42:42.658Z,90.1
2019-05-17T18:43:52.352Z,90.5
2019-05-17T18:45:01.824Z,91
2019-05-17T18:46:11.535Z,91.2
2019-05-17T18:47:21.047Z,91.9
2019-05-17T18:48:30.644Z,92.8
2019-05-17T18:49:41.277Z,93.5
2019-05-17T18:50:49.883Z,93.5
2019-05-17T18:51:59.449Z,92.8
2019-05-17T18:53:17.349Z,92.9
2019-05-17T18:54:18.636Z,93.5
2019-05-17T18:55:28.217Z,94
2019-05-17T18:56:37.974Z,94.5
2019-05-17T18:59:11.535Z,96.4
2019-05-17T19:00:21.250Z,95
2019-05-17T19:01:30.785Z,94.2
2019-05-17T19:02:40.341Z,94.1
2019-05-17T19:03:50.020Z,93.7
2019-05-17T19:04:59.528Z,93.9
2019-05-17T19:06:09.097Z,93.6
2019-05-17T19:07:18.760Z,93.9
2019-05-17T19:08:28.295Z,93.7
2019-05-17T19:09:37.894Z,93.9
2019-05-17T19:10:47.477Z,93.6
2019-05-17T19:11:57.032Z,94.4
2019-05-17T19:13:06.769Z,94.4
2019-05-17T19:14:16.213Z,94.3
2019-05-17T19:15:25.830Z,94.4
2019-05-17T19:16:35.395Z,94.6
2019-05-17T19:17:45.115Z,94.4
2019-05-17T19:18:54.817Z,94.6
2019-05-17T19:20:04.185Z,94.7
2019-05-17T19:21:13.691Z,94.7
2019-05-17T19:22:23.395Z,94.8
2019-05-17T19:23:32.852Z,94.7
2019-05-17T19:24:42.486Z,94.9
2019-05-17T19:25:52.022Z,95.1
2019-05-17T19:27:01.630Z,94.9
2019-05-17T19:28:11.258Z,95.3
2019-05-17T19:29:20.823Z,95.3
2019-05-17T19:30:30.321Z,95.4
2019-05-17T19:31:39.920Z,95.5
2019-05-17T19:32:49.469Z,95.5
2019-05-17T19:33:59.038Z,95.1
2019-05-17T19:35:08.692Z,94.8
2019-05-17T19:36:18.203Z,94.7
2019-05-17T19:37:27.957Z,94.4
2019-05-17T19:38:37.522Z,94.1
2019-05-17T19:39:46.912Z,94.3
2019-05-17T19:40:57.577Z,93.9
2019-05-17T19:42:07.207Z,93.9
2019-05-17T19:43:16.699Z,94.1
2019-05-17T19:44:26.265Z,94.2
2019-05-17T19:45:35.950Z,94.2
2019-05-17T19:46:45.408Z,94.4
2019-05-17T19:47:54.980Z,94.3
2019-05-17T19:49:04.612Z,94.3
2019-05-17T19:50:14.093Z,94.3
2019-05-17T19:51:23.672Z,94.5
2019-05-17T19:52:33.311Z,94.5
2019-05-17T19:53:42.814Z,94.4
2019-05-17T19:54:52.375Z,94.5
2019-05-17T19:56:01.966Z,94.7
2019-05-17T19:57:11.618Z,94.8
2019-05-17T19:58:21.075Z,94.6
2019-05-17T19:59:30.729Z,94.7
2019-05-17T20:00:40.210Z,94.9
2019-05-17T20:01:49.781Z,95.1
2019-05-17T20:02:59.335Z,95.2
2019-05-17T20:04:08.895Z,95.3
2019-05-17T20:05:18.472Z,95.6
2019-05-17T20:06:28.034Z,95.3
2019-05-17T20:07:39.594Z,95.5
2019-05-17T20:08:47.151Z,95.8
2019-05-17T20:09:56.829Z,95.8
2019-05-17T20:11:06.287Z,95.7
2019-05-17T20:12:15.850Z,95.8
2019-05-17T20:13:25.447Z,96
2019-05-17T20:14:35.107Z,96.2
2019-05-17T20:15:44.535Z,96.5
2019-05-17T20:16:54.102Z,96.5
2019-05-17T20:18:03.812Z,96.1
2019-05-17T20:19:13.218Z,96.3
2019-05-17T20:20:22.820Z,96.6
2019-05-17T20:21:32.571Z,96.6
2019-05-17T20:22:41.915Z,96.9
2019-05-17T20:23:51.591Z,96.9
2019-05-17T20:25:01.094Z,97.1
2019-05-17T20:26:10.583Z,97.1
2019-05-17T20:27:20.158Z,97.2
2019-05-17T20:28:29.828Z,97.3
2019-05-17T20:29:39.274Z,96.9
2019-05-17T20:30:48.829Z,97
2019-05-17T20:31:58.394Z,97.3
2019-05-17T20:33:08.184Z,97.6
2019-05-17T20:34:17.507Z,97.6
2019-05-17T20:35:27.072Z,97.5
2019-05-17T20:36:36.729Z,97.8
2019-05-17T20:37:46.200Z,98.1
2019-05-17T20:38:55.750Z,98
2019-05-17T20:40:05.322Z,98
2019-05-17T20:41:14.897Z,98.1
2019-05-17T20:42:24.417Z,97.9
2019-05-17T20:43:33.964Z,98.1
2019-05-17T20:44:43.543Z,98.1
2019-05-17T20:45:53.134Z,98.1
2019-05-17T20:47:02.789Z,98.1
2019-05-17T20:48:12.200Z,98.1
2019-05-17T20:49:21.804Z,98.1
2019-05-17T20:50:31.317Z,98.1
2019-05-17T20:51:40.890Z,98.1
2019-05-17T20:52:50.415Z,98.2
2019-05-17T20:53:59.967Z,98.2
2019-05-17T20:55:09.645Z,98.3
2019-05-17T20:56:33.336Z,98.9
2019-05-17T20:57:28.632Z,99
2019-05-17T20:58:38.187Z,99.1
2019-05-17T20:59:47.765Z,99.1
2019-05-17T21:00:57.494Z,99.4
2019-05-17T21:02:06.938Z,99.5
2019-05-17T21:03:16.385Z,99.6
2019-05-17T21:04:25.938Z,99.9
2019-05-17T21:05:35.513Z,99.9
2019-05-17T21:06:45.062Z,98.8
2019-05-17T21:07:54.590Z,98.9
2019-05-17T21:09:04.184Z,98.2
2019-05-17T21:10:13.758Z,98.4
2019-05-17T21:11:23.255Z,98.5
2019-05-17T21:12:32.823Z,98.5
2019-05-17T21:13:42.468Z,98.4
2019-05-17T21:14:56.587Z,98.3
2019-05-17T21:16:01.447Z,98.2
2019-05-17T21:17:11.243Z,98.6
2019-05-17T21:18:20.560Z,98.5
2019-05-17T21:19:30.131Z,98.4